sensor_id;sensor_type;location;lat;lon;timestamp;P1;durP1;ratioP1;P2;durP2;ratioP2
23266;SDS011;11802;53.160;8.214;2022-12-07T00:01:04;17.43;;;8.57;;
23266;SDS011;11802;53.160;8.214;2022-12-07T00:03:33;16.17;;;9.17;;
23266;SDS011;11802;53.160;8.214;2022-12-07T00:05:59;17.07;;;8.80;;
23266;SDS011;11802;53.160;8.214;2022-12-07T00:08:25;18.03;;;8.37;;
23266;SDS011;11802;53.160;8.214;2022-12-07T00:10:51;13.40;;;8.00;;
23266;SDS011;11802;53.160;8.214;2022-12-07T00:13:16;12.70;;;6.93;;
23266;SDS011;11802;53.160;8.214;2022-12-07T00:15:42;12.10;;;7.23;;
23266;SDS011;11802;53.160;8.214;2022-12-07T00:18:07;14.03;;;7.13;;
23266;SDS011;11802;53.160;8.214;2022-12-07T00:20:33;14.83;;;7.00;;
23266;SDS011;11802;53.160;8.214;2022-12-07T00:22:58;11.93;;;6.10;;
23266;SDS011;11802;53.160;8.214;2022-12-07T00:25:24;14.77;;;6.43;;
23266;SDS011;11802;53.160;8.214;2022-12-07T00:27:52;11.77;;;5.77;;
23266;SDS011;11802;53.160;8.214;2022-12-07T00:30:20;10.87;;;5.87;;
23266;SDS011;11802;53.160;8.214;2022-12-07T00:32:46;9.50;;;5.17;;
23266;SDS011;11802;53.160;8.214;2022-12-07T00:35:11;10.60;;;4.97;;
23266;SDS011;11802;53.160;8.214;2022-12-07T00:37:37;12.53;;;6.17;;
23266;SDS011;11802;53.160;8.214;2022-12-07T00:40:03;11.27;;;5.23;;
23266;SDS011;11802;53.160;8.214;2022-12-07T00:42:29;9.80;;;5.00;;
23266;SDS011;11802;53.160;8.214;2022-12-07T00:44:54;10.10;;;4.20;;
23266;SDS011;11802;53.160;8.214;2022-12-07T00:47:20;11.53;;;5.10;;
23266;SDS011;11802;53.160;8.214;2022-12-07T00:49:45;11.90;;;4.30;;
23266;SDS011;11802;53.160;8.214;2022-12-07T00:52:12;8.57;;;4.53;;
23266;SDS011;11802;53.160;8.214;2022-12-07T00:54:39;7.83;;;4.13;;
23266;SDS011;11802;53.160;8.214;2022-12-07T00:57:05;8.60;;;3.93;;
23266;SDS011;11802;53.160;8.214;2022-12-07T00:59:30;12.27;;;4.10;;
23266;SDS011;11802;53.160;8.214;2022-12-07T01:01:56;10.00;;;4.27;;
23266;SDS011;11802;53.160;8.214;2022-12-07T01:04:21;8.83;;;4.07;;
23266;SDS011;11802;53.160;8.214;2022-12-07T01:06:47;9.73;;;3.67;;
23266;SDS011;11802;53.160;8.214;2022-12-07T01:09:12;8.80;;;3.70;;
23266;SDS011;11802;53.160;8.214;2022-12-07T01:11:38;7.00;;;3.07;;
23266;SDS011;11802;53.160;8.214;2022-12-07T01:14:03;7.70;;;3.33;;
23266;SDS011;11802;53.160;8.214;2022-12-07T01:16:30;7.40;;;3.17;;
23266;SDS011;11802;53.160;8.214;2022-12-07T01:18:57;9.00;;;3.27;;
23266;SDS011;11802;53.160;8.214;2022-12-07T01:21:28;8.17;;;3.37;;
23266;SDS011;11802;53.160;8.214;2022-12-07T01:23:56;7.67;;;3.83;;
23266;SDS011;11802;53.160;8.214;2022-12-07T01:26:23;8.33;;;3.80;;
23266;SDS011;11802;53.160;8.214;2022-12-07T01:28:50;8.43;;;3.57;;
23266;SDS011;11802;53.160;8.214;2022-12-07T01:31:17;7.30;;;3.50;;
23266;SDS011;11802;53.160;8.214;2022-12-07T01:33:45;8.37;;;3.83;;
23266;SDS011;11802;53.160;8.214;2022-12-07T01:36:17;14.57;;;4.80;;
23266;SDS011;11802;53.160;8.214;2022-12-07T01:38:44;8.73;;;4.10;;
23266;SDS011;11802;53.160;8.214;2022-12-07T01:41:12;8.67;;;4.67;;
23266;SDS011;11802;53.160;8.214;2022-12-07T01:44:06;8.63;;;4.00;;
23266;SDS011;11802;53.160;8.214;2022-12-07T01:46:35;8.27;;;4.17;;
23266;SDS011;11802;53.160;8.214;2022-12-07T01:49:01;10.53;;;5.27;;
23266;SDS011;11802;53.160;8.214;2022-12-07T01:51:29;8.17;;;4.63;;
23266;SDS011;11802;53.160;8.214;2022-12-07T01:53:54;11.10;;;4.40;;
23266;SDS011;11802;53.160;8.214;2022-12-07T01:56:20;9.73;;;4.40;;
23266;SDS011;11802;53.160;8.214;2022-12-07T01:58:50;9.70;;;4.37;;
23266;SDS011;11802;53.160;8.214;2022-12-07T02:01:16;10.90;;;4.57;;
23266;SDS011;11802;53.160;8.214;2022-12-07T02:03:42;11.13;;;4.27;;
23266;SDS011;11802;53.160;8.214;2022-12-07T02:06:10;9.47;;;4.03;;
23266;SDS011;11802;53.160;8.214;2022-12-07T02:08:38;11.23;;;4.67;;
23266;SDS011;11802;53.160;8.214;2022-12-07T02:11:07;12.37;;;4.93;;
23266;SDS011;11802;53.160;8.214;2022-12-07T02:13:35;9.17;;;4.43;;
23266;SDS011;11802;53.160;8.214;2022-12-07T02:21:40;9.53;;;4.63;;
23266;SDS011;11802;53.160;8.214;2022-12-07T02:30:08;11.87;;;5.67;;
23266;SDS011;11802;53.160;8.214;2022-12-07T02:32:48;11.10;;;5.90;;
23266;SDS011;11802;53.160;8.214;2022-12-07T02:38:13;12.00;;;5.20;;
23266;SDS011;11802;53.160;8.214;2022-12-07T02:41:00;12.07;;;5.47;;
23266;SDS011;11802;53.160;8.214;2022-12-07T02:43:41;10.50;;;5.20;;
23266;SDS011;11802;53.160;8.214;2022-12-07T02:46:13;12.70;;;5.30;;
23266;SDS011;11802;53.160;8.214;2022-12-07T02:48:41;13.47;;;5.27;;
23266;SDS011;11802;53.160;8.214;2022-12-07T02:51:08;12.80;;;5.70;;
23266;SDS011;11802;53.160;8.214;2022-12-07T02:53:35;8.67;;;4.60;;
23266;SDS011;11802;53.160;8.214;2022-12-07T03:01:37;11.83;;;4.90;;
23266;SDS011;11802;53.160;8.214;2022-12-07T03:04:23;12.30;;;5.10;;
23266;SDS011;11802;53.160;8.214;2022-12-07T03:09:53;9.40;;;4.60;;
23266;SDS011;11802;53.160;8.214;2022-12-07T03:12:31;13.70;;;4.47;;
23266;SDS011;11802;53.160;8.214;2022-12-07T03:15:10;12.83;;;4.57;;
23266;SDS011;11802;53.160;8.214;2022-12-07T03:17:41;7.83;;;3.67;;
23266;SDS011;11802;53.160;8.214;2022-12-07T03:20:09;9.53;;;3.40;;
23266;SDS011;11802;53.160;8.214;2022-12-07T03:22:38;9.07;;;3.50;;
23266;SDS011;11802;53.160;8.214;2022-12-07T03:25:10;6.30;;;2.73;;
23266;SDS011;11802;53.160;8.214;2022-12-07T03:27:46;6.90;;;2.80;;
23266;SDS011;11802;53.160;8.214;2022-12-07T03:30:18;8.83;;;2.93;;
23266;SDS011;11802;53.160;8.214;2022-12-07T03:32:57;8.27;;;3.17;;
23266;SDS011;11802;53.160;8.214;2022-12-07T03:36:10;4.97;;;2.30;;
23266;SDS011;11802;53.160;8.214;2022-12-07T03:38:44;5.87;;;2.03;;
23266;SDS011;11802;53.160;8.214;2022-12-07T03:41:19;4.50;;;1.63;;
23266;SDS011;11802;53.160;8.214;2022-12-07T03:43:51;4.97;;;1.67;;
23266;SDS011;11802;53.160;8.214;2022-12-07T03:46:29;2.43;;;1.40;;
23266;SDS011;11802;53.160;8.214;2022-12-07T03:49:12;3.17;;;1.30;;
23266;SDS011;11802;53.160;8.214;2022-12-07T03:51:54;3.37;;;1.40;;
23266;SDS011;11802;53.160;8.214;2022-12-07T03:54:27;3.47;;;1.27;;
23266;SDS011;11802;53.160;8.214;2022-12-07T03:57:15;3.37;;;1.30;;
23266;SDS011;11802;53.160;8.214;2022-12-07T03:59:41;5.77;;;1.57;;
23266;SDS011;11802;53.160;8.214;2022-12-07T04:02:08;5.00;;;1.20;;
23266;SDS011;11802;53.160;8.214;2022-12-07T04:04:37;3.87;;;1.23;;
23266;SDS011;11802;53.160;8.214;2022-12-07T04:07:04;3.17;;;1.10;;
23266;SDS011;11802;53.160;8.214;2022-12-07T04:09:29;1.70;;;1.10;;
23266;SDS011;11802;53.160;8.214;2022-12-07T04:11:55;5.07;;;1.17;;
23266;SDS011;11802;53.160;8.214;2022-12-07T04:14:21;2.30;;;1.03;;
23266;SDS011;11802;53.160;8.214;2022-12-07T04:16:50;5.00;;;1.30;;
23266;SDS011;11802;53.160;8.214;2022-12-07T04:19:18;6.50;;;1.20;;
23266;SDS011;11802;53.160;8.214;2022-12-07T04:21:45;4.73;;;1.20;;
23266;SDS011;11802;53.160;8.214;2022-12-07T04:24:12;6.33;;;1.23;;
23266;SDS011;11802;53.160;8.214;2022-12-07T04:26:40;4.33;;;1.07;;
23266;SDS011;11802;53.160;8.214;2022-12-07T04:29:06;4.57;;;1.30;;
23266;SDS011;11802;53.160;8.214;2022-12-07T04:31:31;4.07;;;0.97;;
23266;SDS011;11802;53.160;8.214;2022-12-07T04:33:57;3.87;;;1.37;;
23266;SDS011;11802;53.160;8.214;2022-12-07T04:36:22;4.33;;;1.37;;
23266;SDS011;11802;53.160;8.214;2022-12-07T04:38:48;4.80;;;1.10;;
23266;SDS011;11802;53.160;8.214;2022-12-07T04:41:14;3.67;;;1.10;;
23266;SDS011;11802;53.160;8.214;2022-12-07T04:43:40;4.63;;;1.07;;
23266;SDS011;11802;53.160;8.214;2022-12-07T04:46:06;6.97;;;1.50;;
23266;SDS011;11802;53.160;8.214;2022-12-07T04:48:31;5.03;;;1.50;;
23266;SDS011;11802;53.160;8.214;2022-12-07T04:50:57;4.30;;;1.40;;
23266;SDS011;11802;53.160;8.214;2022-12-07T04:53:22;4.57;;;1.10;;
23266;SDS011;11802;53.160;8.214;2022-12-07T04:55:48;6.30;;;1.43;;
23266;SDS011;11802;53.160;8.214;2022-12-07T04:58:13;9.43;;;1.40;;
23266;SDS011;11802;53.160;8.214;2022-12-07T05:00:39;4.87;;;1.03;;
23266;SDS011;11802;53.160;8.214;2022-12-07T05:03:05;8.93;;;1.20;;
23266;SDS011;11802;53.160;8.214;2022-12-07T05:05:31;7.27;;;1.30;;
23266;SDS011;11802;53.160;8.214;2022-12-07T05:07:56;11.17;;;1.40;;
23266;SDS011;11802;53.160;8.214;2022-12-07T05:10:22;5.70;;;1.13;;
23266;SDS011;11802;53.160;8.214;2022-12-07T05:12:47;2.63;;;1.00;;
23266;SDS011;11802;53.160;8.214;2022-12-07T05:15:13;5.70;;;1.03;;
23266;SDS011;11802;53.160;8.214;2022-12-07T05:17:39;3.70;;;1.00;;
23266;SDS011;11802;53.160;8.214;2022-12-07T05:20:05;10.37;;;1.50;;
23266;SDS011;11802;53.160;8.214;2022-12-07T05:22:31;3.63;;;1.10;;
23266;SDS011;11802;53.160;8.214;2022-12-07T05:24:57;4.90;;;1.23;;
23266;SDS011;11802;53.160;8.214;2022-12-07T05:27:22;7.30;;;1.20;;
23266;SDS011;11802;53.160;8.214;2022-12-07T05:29:49;5.77;;;1.20;;
23266;SDS011;11802;53.160;8.214;2022-12-07T05:32:15;6.40;;;1.30;;
23266;SDS011;11802;53.160;8.214;2022-12-07T05:34:41;10.30;;;1.30;;
23266;SDS011;11802;53.160;8.214;2022-12-07T05:37:07;4.10;;;1.30;;
23266;SDS011;11802;53.160;8.214;2022-12-07T05:39:32;6.40;;;1.20;;
23266;SDS011;11802;53.160;8.214;2022-12-07T05:41:58;5.77;;;1.20;;
23266;SDS011;11802;53.160;8.214;2022-12-07T05:44:39;7.83;;;1.13;;
23266;SDS011;11802;53.160;8.214;2022-12-07T05:47:09;4.13;;;1.20;;
23266;SDS011;11802;53.160;8.214;2022-12-07T05:49:35;3.47;;;1.00;;
23266;SDS011;11802;53.160;8.214;2022-12-07T05:52:00;7.83;;;2.17;;
23266;SDS011;11802;53.160;8.214;2022-12-07T05:54:26;15.60;;;4.67;;
23266;SDS011;11802;53.160;8.214;2022-12-07T05:56:51;7.27;;;1.37;;
23266;SDS011;11802;53.160;8.214;2022-12-07T05:59:17;10.57;;;1.97;;
23266;SDS011;11802;53.160;8.214;2022-12-07T06:01:59;9.27;;;1.20;;
23266;SDS011;11802;53.160;8.214;2022-12-07T06:04:28;6.23;;;1.13;;
23266;SDS011;11802;53.160;8.214;2022-12-07T06:06:55;3.90;;;1.17;;
23266;SDS011;11802;53.160;8.214;2022-12-07T06:09:22;8.33;;;1.53;;
23266;SDS011;11802;53.160;8.214;2022-12-07T06:11:48;6.87;;;1.30;;
23266;SDS011;11802;53.160;8.214;2022-12-07T06:14:32;3.80;;;1.17;;
23266;SDS011;11802;53.160;8.214;2022-12-07T06:16:58;9.17;;;1.90;;
23266;SDS011;11802;53.160;8.214;2022-12-07T06:19:24;4.43;;;1.33;;
23266;SDS011;11802;53.160;8.214;2022-12-07T06:21:50;9.90;;;1.77;;
23266;SDS011;11802;53.160;8.214;2022-12-07T06:24:16;5.60;;;1.77;;
23266;SDS011;11802;53.160;8.214;2022-12-07T06:26:42;5.23;;;1.93;;
23266;SDS011;11802;53.160;8.214;2022-12-07T06:29:08;3.67;;;1.07;;
23266;SDS011;11802;53.160;8.214;2022-12-07T06:31:35;8.87;;;1.17;;
23266;SDS011;11802;53.160;8.214;2022-12-07T06:34:03;6.00;;;1.10;;
23266;SDS011;11802;53.160;8.214;2022-12-07T06:36:31;4.00;;;1.03;;
23266;SDS011;11802;53.160;8.214;2022-12-07T06:38:57;4.97;;;1.00;;
23266;SDS011;11802;53.160;8.214;2022-12-07T06:41:22;3.00;;;1.20;;
23266;SDS011;11802;53.160;8.214;2022-12-07T06:43:48;3.37;;;0.87;;
23266;SDS011;11802;53.160;8.214;2022-12-07T06:46:15;2.90;;;1.00;;
23266;SDS011;11802;53.160;8.214;2022-12-07T06:48:41;5.47;;;1.10;;
23266;SDS011;11802;53.160;8.214;2022-12-07T06:51:08;3.60;;;1.00;;
23266;SDS011;11802;53.160;8.214;2022-12-07T06:53:33;3.60;;;1.03;;
23266;SDS011;11802;53.160;8.214;2022-12-07T06:55:59;6.00;;;0.80;;
23266;SDS011;11802;53.160;8.214;2022-12-07T06:58:25;6.90;;;1.30;;
23266;SDS011;11802;53.160;8.214;2022-12-07T07:00:51;4.10;;;1.17;;
23266;SDS011;11802;53.160;8.214;2022-12-07T07:03:16;3.50;;;1.20;;
23266;SDS011;11802;53.160;8.214;2022-12-07T07:05:42;4.40;;;1.17;;
23266;SDS011;11802;53.160;8.214;2022-12-07T07:08:08;5.47;;;1.20;;
23266;SDS011;11802;53.160;8.214;2022-12-07T07:10:34;7.33;;;1.13;;
23266;SDS011;11802;53.160;8.214;2022-12-07T07:13:00;3.77;;;1.00;;
23266;SDS011;11802;53.160;8.214;2022-12-07T07:15:26;3.40;;;0.87;;
23266;SDS011;11802;53.160;8.214;2022-12-07T07:17:51;3.90;;;0.83;;
23266;SDS011;11802;53.160;8.214;2022-12-07T07:20:19;6.53;;;1.10;;
23266;SDS011;11802;53.160;8.214;2022-12-07T07:22:45;5.10;;;0.87;;
23266;SDS011;11802;53.160;8.214;2022-12-07T07:25:11;3.60;;;1.10;;
23266;SDS011;11802;53.160;8.214;2022-12-07T07:27:36;1.83;;;0.87;;
23266;SDS011;11802;53.160;8.214;2022-12-07T07:30:02;5.10;;;1.10;;
23266;SDS011;11802;53.160;8.214;2022-12-07T07:32:28;3.47;;;1.13;;
23266;SDS011;11802;53.160;8.214;2022-12-07T07:34:54;5.67;;;1.17;;
23266;SDS011;11802;53.160;8.214;2022-12-07T07:37:20;5.87;;;1.30;;
23266;SDS011;11802;53.160;8.214;2022-12-07T07:39:45;2.90;;;1.03;;
23266;SDS011;11802;53.160;8.214;2022-12-07T07:42:11;4.23;;;1.10;;
23266;SDS011;11802;53.160;8.214;2022-12-07T07:44:36;2.77;;;0.93;;
23266;SDS011;11802;53.160;8.214;2022-12-07T07:47:02;4.97;;;1.40;;
23266;SDS011;11802;53.160;8.214;2022-12-07T07:49:28;5.43;;;1.30;;
23266;SDS011;11802;53.160;8.214;2022-12-07T07:51:53;2.97;;;0.80;;
23266;SDS011;11802;53.160;8.214;2022-12-07T07:54:19;3.50;;;1.30;;
23266;SDS011;11802;53.160;8.214;2022-12-07T07:56:44;3.90;;;1.20;;
23266;SDS011;11802;53.160;8.214;2022-12-07T07:59:10;4.23;;;1.37;;
23266;SDS011;11802;53.160;8.214;2022-12-07T08:01:35;8.03;;;2.33;;
23266;SDS011;11802;53.160;8.214;2022-12-07T08:04:01;5.50;;;1.67;;
23266;SDS011;11802;53.160;8.214;2022-12-07T08:06:27;4.70;;;1.40;;
23266;SDS011;11802;53.160;8.214;2022-12-07T08:08:52;3.97;;;1.10;;
23266;SDS011;11802;53.160;8.214;2022-12-07T08:11:18;5.03;;;1.10;;
23266;SDS011;11802;53.160;8.214;2022-12-07T08:13:46;4.70;;;1.33;;
23266;SDS011;11802;53.160;8.214;2022-12-07T08:16:12;5.50;;;1.40;;
23266;SDS011;11802;53.160;8.214;2022-12-07T08:18:39;4.03;;;1.33;;
23266;SDS011;11802;53.160;8.214;2022-12-07T08:21:06;5.50;;;1.53;;
23266;SDS011;11802;53.160;8.214;2022-12-07T08:23:32;7.07;;;1.97;;
23266;SDS011;11802;53.160;8.214;2022-12-07T08:26:09;6.53;;;3.00;;
23266;SDS011;11802;53.160;8.214;2022-12-07T08:28:36;8.03;;;4.20;;
23266;SDS011;11802;53.160;8.214;2022-12-07T08:31:06;8.20;;;2.80;;
23266;SDS011;11802;53.160;8.214;2022-12-07T08:33:35;11.40;;;6.33;;
23266;SDS011;11802;53.160;8.214;2022-12-07T08:36:02;18.30;;;10.27;;
23266;SDS011;11802;53.160;8.214;2022-12-07T08:38:29;9.93;;;2.80;;
23266;SDS011;11802;53.160;8.214;2022-12-07T08:40:55;9.73;;;3.40;;
23266;SDS011;11802;53.160;8.214;2022-12-07T08:43:22;5.17;;;2.13;;
23266;SDS011;11802;53.160;8.214;2022-12-07T08:45:49;11.47;;;4.30;;
23266;SDS011;11802;53.160;8.214;2022-12-07T08:48:27;15.70;;;7.43;;
23266;SDS011;11802;53.160;8.214;2022-12-07T08:50:53;22.47;;;8.93;;
23266;SDS011;11802;53.160;8.214;2022-12-07T08:53:20;12.17;;;4.47;;
23266;SDS011;11802;53.160;8.214;2022-12-07T08:55:46;8.20;;;2.30;;
23266;SDS011;11802;53.160;8.214;2022-12-07T08:58:12;50.10;;;18.87;;
23266;SDS011;11802;53.160;8.214;2022-12-07T09:00:37;17.10;;;6.30;;
23266;SDS011;11802;53.160;8.214;2022-12-07T09:03:03;6.43;;;2.83;;
23266;SDS011;11802;53.160;8.214;2022-12-07T09:05:28;5.07;;;2.07;;
23266;SDS011;11802;53.160;8.214;2022-12-07T09:07:55;4.97;;;2.40;;
23266;SDS011;11802;53.160;8.214;2022-12-07T09:10:25;6.00;;;3.23;;
23266;SDS011;11802;53.160;8.214;2022-12-07T09:12:51;6.70;;;2.73;;
23266;SDS011;11802;53.160;8.214;2022-12-07T09:15:16;16.20;;;7.17;;
23266;SDS011;11802;53.160;8.214;2022-12-07T09:17:42;20.27;;;8.63;;
23266;SDS011;11802;53.160;8.214;2022-12-07T09:20:08;15.23;;;7.07;;
23266;SDS011;11802;53.160;8.214;2022-12-07T09:22:34;13.07;;;3.67;;
23266;SDS011;11802;53.160;8.214;2022-12-07T09:25:00;11.00;;;4.73;;
23266;SDS011;11802;53.160;8.214;2022-12-07T09:27:26;12.93;;;5.23;;
23266;SDS011;11802;53.160;8.214;2022-12-07T09:29:52;11.00;;;4.50;;
23266;SDS011;11802;53.160;8.214;2022-12-07T09:32:18;6.30;;;2.00;;
23266;SDS011;11802;53.160;8.214;2022-12-07T09:34:43;5.57;;;1.70;;
23266;SDS011;11802;53.160;8.214;2022-12-07T09:37:09;8.23;;;2.03;;
23266;SDS011;11802;53.160;8.214;2022-12-07T09:39:38;5.27;;;1.27;;
23266;SDS011;11802;53.160;8.214;2022-12-07T09:42:04;5.70;;;2.00;;
23266;SDS011;11802;53.160;8.214;2022-12-07T09:44:31;7.70;;;1.60;;
23266;SDS011;11802;53.160;8.214;2022-12-07T09:46:57;7.57;;;2.30;;
23266;SDS011;11802;53.160;8.214;2022-12-07T09:49:24;4.63;;;1.50;;
23266;SDS011;11802;53.160;8.214;2022-12-07T09:54:34;5.83;;;2.00;;
23266;SDS011;11802;53.160;8.214;2022-12-07T09:57:04;6.43;;;1.70;;
23266;SDS011;11802;53.160;8.214;2022-12-07T09:59:29;5.00;;;1.50;;
23266;SDS011;11802;53.160;8.214;2022-12-07T10:01:55;6.23;;;1.50;;
23266;SDS011;11802;53.160;8.214;2022-12-07T10:04:22;7.30;;;1.97;;
23266;SDS011;11802;53.160;8.214;2022-12-07T10:06:49;5.93;;;1.80;;
23266;SDS011;11802;53.160;8.214;2022-12-07T10:09:16;5.87;;;1.70;;
23266;SDS011;11802;53.160;8.214;2022-12-07T10:14:36;4.53;;;1.30;;
23266;SDS011;11802;53.160;8.214;2022-12-07T10:17:24;5.60;;;1.30;;
23266;SDS011;11802;53.160;8.214;2022-12-07T10:19:51;7.70;;;1.80;;
23266;SDS011;11802;53.160;8.214;2022-12-07T10:22:17;7.33;;;2.00;;
23266;SDS011;11802;53.160;8.214;2022-12-07T10:24:43;7.43;;;2.13;;
23266;SDS011;11802;53.160;8.214;2022-12-07T10:27:19;9.10;;;2.20;;
23266;SDS011;11802;53.160;8.214;2022-12-07T10:29:48;10.73;;;5.00;;
23266;SDS011;11802;53.160;8.214;2022-12-07T10:34:41;13.60;;;6.53;;
23266;SDS011;11802;53.160;8.214;2022-12-07T10:42:19;7.23;;;2.50;;
23266;SDS011;11802;53.160;8.214;2022-12-07T10:44:50;22.03;;;6.03;;
23266;SDS011;11802;53.160;8.214;2022-12-07T10:53:44;5.23;;;1.40;;
23266;SDS011;11802;53.160;8.214;2022-12-07T10:56:45;5.53;;;1.30;;
23266;SDS011;11802;53.160;8.214;2022-12-07T11:04:55;5.20;;;1.10;;
23266;SDS011;11802;53.160;8.214;2022-12-07T11:07:45;10.40;;;1.60;;
23266;SDS011;11802;53.160;8.214;2022-12-07T11:13:28;6.70;;;1.63;;
23266;SDS011;11802;53.160;8.214;2022-12-07T11:19:20;5.93;;;1.53;;
23266;SDS011;11802;53.160;8.214;2022-12-07T11:24:47;7.30;;;1.83;;
23266;SDS011;11802;53.160;8.214;2022-12-07T11:32:37;6.00;;;1.77;;
23266;SDS011;11802;53.160;8.214;2022-12-07T11:35:36;6.77;;;1.40;;
23266;SDS011;11802;53.160;8.214;2022-12-07T11:38:12;9.07;;;1.60;;
23266;SDS011;11802;53.160;8.214;2022-12-07T11:40:43;6.10;;;1.40;;
23266;SDS011;11802;53.160;8.214;2022-12-07T11:46:03;6.17;;;1.43;;
23266;SDS011;11802;53.160;8.214;2022-12-07T11:48:40;5.90;;;2.07;;
23266;SDS011;11802;53.160;8.214;2022-12-07T11:51:43;6.13;;;1.43;;
23266;SDS011;11802;53.160;8.214;2022-12-07T11:54:12;11.13;;;1.50;;
23266;SDS011;11802;53.160;8.214;2022-12-07T11:56:43;7.57;;;1.60;;
23266;SDS011;11802;53.160;8.214;2022-12-07T11:59:16;4.17;;;1.20;;
23266;SDS011;11802;53.160;8.214;2022-12-07T12:01:55;6.00;;;1.30;;
23266;SDS011;11802;53.160;8.214;2022-12-07T12:07:06;4.37;;;1.40;;
23266;SDS011;11802;53.160;8.214;2022-12-07T12:09:34;7.13;;;1.40;;
23266;SDS011;11802;53.160;8.214;2022-12-07T12:15:03;7.73;;;1.40;;
23266;SDS011;11802;53.160;8.214;2022-12-07T12:17:50;11.77;;;4.47;;
23266;SDS011;11802;53.160;8.214;2022-12-07T12:24:10;6.50;;;1.50;;
23266;SDS011;11802;53.160;8.214;2022-12-07T12:26:26;5.43;;;2.37;;
23266;SDS011;11802;53.160;8.214;2022-12-07T12:29:02;8.40;;;1.80;;
23266;SDS011;11802;53.160;8.214;2022-12-07T12:31:34;8.50;;;1.30;;
23266;SDS011;11802;53.160;8.214;2022-12-07T12:34:10;4.93;;;1.23;;
23266;SDS011;11802;53.160;8.214;2022-12-07T12:37:53;7.23;;;1.53;;
23266;SDS011;11802;53.160;8.214;2022-12-07T12:42:44;7.50;;;1.60;;
23266;SDS011;11802;53.160;8.214;2022-12-07T12:45:22;5.13;;;1.03;;
23266;SDS011;11802;53.160;8.214;2022-12-07T12:47:53;5.20;;;1.20;;
23266;SDS011;11802;53.160;8.214;2022-12-07T12:52:53;3.73;;;0.97;;
23266;SDS011;11802;53.160;8.214;2022-12-07T13:00:48;8.93;;;1.20;;
23266;SDS011;11802;53.160;8.214;2022-12-07T13:03:52;3.87;;;1.27;;
23266;SDS011;11802;53.160;8.214;2022-12-07T13:06:32;6.83;;;1.13;;
23266;SDS011;11802;53.160;8.214;2022-12-07T13:09:02;4.30;;;0.83;;
23266;SDS011;11802;53.160;8.214;2022-12-07T13:16:59;2.97;;;1.07;;
23266;SDS011;11802;53.160;8.214;2022-12-07T13:33:38;4.00;;;1.37;;
23266;SDS011;11802;53.160;8.214;2022-12-07T13:36:18;5.93;;;1.80;;
23266;SDS011;11802;53.160;8.214;2022-12-07T13:41:20;4.33;;;2.10;;
23266;SDS011;11802;53.160;8.214;2022-12-07T13:44:00;5.80;;;1.70;;
23266;SDS011;11802;53.160;8.214;2022-12-07T13:46:44;4.73;;;1.50;;
23266;SDS011;11802;53.160;8.214;2022-12-07T13:49:26;4.60;;;1.50;;
23266;SDS011;11802;53.160;8.214;2022-12-07T13:51:53;5.27;;;1.43;;
23266;SDS011;11802;53.160;8.214;2022-12-07T13:54:20;7.87;;;1.50;;
23266;SDS011;11802;53.160;8.214;2022-12-07T13:56:50;3.33;;;1.20;;
23266;SDS011;11802;53.160;8.214;2022-12-07T13:59:18;5.17;;;1.80;;
23266;SDS011;11802;53.160;8.214;2022-12-07T14:01:47;5.37;;;1.10;;
23266;SDS011;11802;53.160;8.214;2022-12-07T14:07:18;7.53;;;1.33;;
23266;SDS011;11802;53.160;8.214;2022-12-07T14:09:53;6.77;;;1.37;;
23266;SDS011;11802;53.160;8.214;2022-12-07T14:12:30;4.27;;;1.20;;
23266;SDS011;11802;53.160;8.214;2022-12-07T14:14:57;4.53;;;1.17;;
23266;SDS011;11802;53.160;8.214;2022-12-07T14:17:25;8.70;;;3.30;;
23266;SDS011;11802;53.160;8.214;2022-12-07T14:19:53;13.77;;;5.07;;
23266;SDS011;11802;53.160;8.214;2022-12-07T14:24:59;3.73;;;1.10;;
23266;SDS011;11802;53.160;8.214;2022-12-07T14:27:34;3.60;;;1.00;;
23266;SDS011;11802;53.160;8.214;2022-12-07T14:30:00;6.67;;;1.40;;
23266;SDS011;11802;53.160;8.214;2022-12-07T14:32:27;2.53;;;0.93;;
23266;SDS011;11802;53.160;8.214;2022-12-07T14:35:10;2.40;;;1.00;;
23266;SDS011;11802;53.160;8.214;2022-12-07T14:37:38;5.53;;;1.30;;
23266;SDS011;11802;53.160;8.214;2022-12-07T14:40:05;10.03;;;3.10;;
23266;SDS011;11802;53.160;8.214;2022-12-07T14:42:32;6.87;;;2.53;;
23266;SDS011;11802;53.160;8.214;2022-12-07T14:44:58;7.00;;;2.50;;
23266;SDS011;11802;53.160;8.214;2022-12-07T14:47:24;5.33;;;2.40;;
23266;SDS011;11802;53.160;8.214;2022-12-07T14:49:51;5.63;;;1.67;;
23266;SDS011;11802;53.160;8.214;2022-12-07T14:52:18;5.87;;;1.50;;
23266;SDS011;11802;53.160;8.214;2022-12-07T14:54:47;6.67;;;1.30;;
23266;SDS011;11802;53.160;8.214;2022-12-07T14:57:12;10.00;;;1.73;;
23266;SDS011;11802;53.160;8.214;2022-12-07T14:59:38;3.07;;;1.13;;
23266;SDS011;11802;53.160;8.214;2022-12-07T15:02:04;3.93;;;1.97;;
23266;SDS011;11802;53.160;8.214;2022-12-07T15:04:30;6.17;;;1.83;;
23266;SDS011;11802;53.160;8.214;2022-12-07T15:07:00;6.87;;;2.17;;
23266;SDS011;11802;53.160;8.214;2022-12-07T15:09:27;4.80;;;1.70;;
23266;SDS011;11802;53.160;8.214;2022-12-07T15:11:53;8.87;;;3.40;;
23266;SDS011;11802;53.160;8.214;2022-12-07T15:14:19;20.90;;;8.20;;
23266;SDS011;11802;53.160;8.214;2022-12-07T15:16:45;14.43;;;5.40;;
23266;SDS011;11802;53.160;8.214;2022-12-07T15:19:17;10.63;;;2.90;;
23266;SDS011;11802;53.160;8.214;2022-12-07T15:21:47;7.97;;;3.57;;
23266;SDS011;11802;53.160;8.214;2022-12-07T15:26:41;9.77;;;3.30;;
23266;SDS011;11802;53.160;8.214;2022-12-07T15:29:06;9.97;;;4.50;;
23266;SDS011;11802;53.160;8.214;2022-12-07T15:31:32;5.87;;;2.10;;
23266;SDS011;11802;53.160;8.214;2022-12-07T15:33:58;10.17;;;2.23;;
23266;SDS011;11802;53.160;8.214;2022-12-07T15:36:25;8.30;;;2.40;;
23266;SDS011;11802;53.160;8.214;2022-12-07T15:38:52;5.87;;;2.13;;
23266;SDS011;11802;53.160;8.214;2022-12-07T15:41:18;8.57;;;2.70;;
23266;SDS011;11802;53.160;8.214;2022-12-07T15:43:44;8.63;;;2.80;;
23266;SDS011;11802;53.160;8.214;2022-12-07T15:46:38;8.83;;;2.63;;
23266;SDS011;11802;53.160;8.214;2022-12-07T15:49:09;7.63;;;2.33;;
23266;SDS011;11802;53.160;8.214;2022-12-07T15:51:36;6.70;;;2.37;;
23266;SDS011;11802;53.160;8.214;2022-12-07T15:54:02;8.10;;;2.07;;
23266;SDS011;11802;53.160;8.214;2022-12-07T15:56:28;5.57;;;1.47;;
23266;SDS011;11802;53.160;8.214;2022-12-07T15:58:53;5.73;;;1.80;;
23266;SDS011;11802;53.160;8.214;2022-12-07T16:01:20;5.50;;;2.27;;
23266;SDS011;11802;53.160;8.214;2022-12-07T16:03:49;3.83;;;2.00;;
23266;SDS011;11802;53.160;8.214;2022-12-07T16:06:15;6.63;;;2.70;;
23266;SDS011;11802;53.160;8.214;2022-12-07T16:08:43;8.80;;;2.60;;
23266;SDS011;11802;53.160;8.214;2022-12-07T16:11:09;5.70;;;2.30;;
23266;SDS011;11802;53.160;8.214;2022-12-07T16:13:39;6.87;;;2.27;;
23266;SDS011;11802;53.160;8.214;2022-12-07T16:16:25;7.60;;;2.80;;
23266;SDS011;11802;53.160;8.214;2022-12-07T16:18:53;7.50;;;3.07;;
23266;SDS011;11802;53.160;8.214;2022-12-07T16:21:19;7.23;;;3.80;;
23266;SDS011;11802;53.160;8.214;2022-12-07T16:23:45;7.90;;;3.73;;
23266;SDS011;11802;53.160;8.214;2022-12-07T16:26:15;8.37;;;3.20;;
23266;SDS011;11802;53.160;8.214;2022-12-07T16:28:43;9.00;;;2.83;;
23266;SDS011;11802;53.160;8.214;2022-12-07T16:31:10;5.23;;;2.47;;
23266;SDS011;11802;53.160;8.214;2022-12-07T16:33:38;8.00;;;3.60;;
23266;SDS011;11802;53.160;8.214;2022-12-07T16:36:05;7.13;;;2.60;;
23266;SDS011;11802;53.160;8.214;2022-12-07T16:38:33;6.10;;;2.70;;
23266;SDS011;11802;53.160;8.214;2022-12-07T16:40:58;5.07;;;2.20;;
23266;SDS011;11802;53.160;8.214;2022-12-07T16:43:24;6.17;;;2.90;;
23266;SDS011;11802;53.160;8.214;2022-12-07T16:45:49;7.23;;;3.13;;
23266;SDS011;11802;53.160;8.214;2022-12-07T16:48:15;6.23;;;3.27;;
23266;SDS011;11802;53.160;8.214;2022-12-07T16:50:42;6.20;;;2.67;;
23266;SDS011;11802;53.160;8.214;2022-12-07T16:53:08;6.07;;;2.50;;